Time;durP1;ratioP1;P1;durP2;ratioP2;P2;SDS_P1;SDS_P2;PMS_P1;PMS_P2;Temp;Humidity;BMP_temperature;BMP_pressure;BME280_temperature;BME280_humidity;BME280_pressure;Samples;Min_cycle;Max_cycle;Signal;HPM_P1;HPM_P2
2022/04/15 00:01:50;;;;;;;11.73;10.30;;;;;;;;;;4936505;29;20495;-66
2022/04/15 00:04:19;;;;;;;20.77;11.18;;;;;;;;;;4936521;29;20059;-66
2022/04/15 00:06:50;;;;;;;13.40;11.02;;;;;;;;;;4936608;29;20088;-66
2022/04/15 00:09:19;;;;;;;16.05;11.55;;;;;;;;;;4918515;29;20116;-66
2022/04/15 00:11:49;;;;;;;14.90;10.93;;;;;;;;;;4921703;29;20060;-66
2022/04/15 00:14:17;;;;;;;11.40;10.20;;;;;;;;;;4921706;29;20052;-66
2022/04/15 00:16:45;;;;;;;13.95;10.65;;;;;;;;;;4922077;29;20049;-66
2022/04/15 00:19:15;;;;;;;17.85;10.88;;;;;;;;;;4921555;29;20056;-66
2022/04/15 00:21:43;;;;;;;17.88;11.75;;;;;;;;;;4921411;29;20498;-66
2022/04/15 00:24:12;;;;;;;20.05;11.23;;;;;;;;;;4930449;29;20099;-66
2022/04/15 00:26:42;;;;;;;14.07;11.50;;;;;;;;;;4921726;29;20574;-66
2022/04/15 00:29:12;;;;;;;13.40;11.15;;;;;;;;;;4921390;29;20055;-66
2022/04/15 00:31:41;;;;;;;12.80;11.35;;;;;;;;;;4921517;29;20063;-66
2022/04/15 00:34:09;;;;;;;11.70;10.32;;;;;;;;;;4921061;29;20059;-66
2022/04/15 00:36:38;;;;;;;13.88;10.30;;;;;;;;;;4921839;29;20111;-66
2022/04/15 00:39:06;;;;;;;15.35;11.27;;;;;;;;;;4920936;29;20064;-66
2022/04/15 00:41:36;;;;;;;14.38;10.30;;;;;;;;;;4921679;29;20048;-66
2022/04/15 00:44:07;;;;;;;10.68;8.80;;;;;;;;;;4936588;29;20106;-67
2022/04/15 00:46:37;;;;;;;12.35;9.23;;;;;;;;;;4939350;29;20130;-67
2022/04/15 00:49:07;;;;;;;10.18;8.38;;;;;;;;;;4939497;29;20067;-67
2022/04/15 00:51:36;;;;;;;11.23;9.18;;;;;;;;;;4939077;29;20139;-67
2022/04/15 00:54:06;;;;;;;10.05;8.23;;;;;;;;;;4939198;29;20043;-67
2022/04/15 00:56:36;;;;;;;12.02;9.30;;;;;;;;;;4938999;29;20047;-67
2022/04/15 00:59:07;;;;;;;13.40;8.55;;;;;;;;;;4928701;29;20060;-67
2022/04/15 01:01:35;;;;;;;8.60;7.70;;;;;;;;;;4938474;29;20056;-67
2022/04/15 01:04:04;;;;;;;10.52;7.18;;;;;;;;;;4920169;29;20084;-67
2022/04/15 01:06:35;;;;;;;12.13;7.63;;;;;;;;;;4920866;29;20044;-68
2022/04/15 01:09:06;;;;;;;10.45;8.52;;;;;;;;;;4933135;29;20407;-67
2022/04/15 01:11:35;;;;;;;14.48;8.20;;;;;;;;;;4933713;29;20082;-67
2022/04/15 01:14:05;;;;;;;9.52;8.48;;;;;;;;;;4938927;29;20059;-67
2022/04/15 01:16:34;;;;;;;14.30;9.52;;;;;;;;;;4938499;29;20055;-67
2022/04/15 01:19:03;;;;;;;11.52;8.73;;;;;;;;;;4920328;29;20048;-67
2022/04/15 01:21:35;;;;;;;13.90;9.00;;;;;;;;;;4920155;29;20508;-67
2022/04/15 01:24:06;;;;;;;9.63;8.57;;;;;;;;;;4920693;29;20055;-67
2022/04/15 01:26:34;;;;;;;12.30;9.10;;;;;;;;;;4920515;29;20054;-67
2022/04/15 01:29:04;;;;;;;9.40;7.07;;;;;;;;;;4920270;29;20078;-67
2022/04/15 01:31:32;;;;;;;10.65;7.70;;;;;;;;;;4920111;29;20575;-67
2022/04/15 01:34:01;;;;;;;8.30;7.50;;;;;;;;;;4935403;29;20063;-67
2022/04/15 01:36:30;;;;;;;9.10;6.97;;;;;;;;;;4938974;29;20511;-68
2022/04/15 01:38:58;;;;;;;9.80;7.60;;;;;;;;;;4935289;29;20103;-68
2022/04/15 01:41:27;;;;;;;7.85;6.25;;;;;;;;;;4936004;29;20476;-68
2022/04/15 01:43:58;;;;;;;9.18;6.95;;;;;;;;;;4938676;29;20100;-68
2022/04/15 01:46:27;;;;;;;10.73;7.18;;;;;;;;;;4922017;29;20086;-68
2022/04/15 01:48:57;;;;;;;9.10;7.07;;;;;;;;;;4937311;29;20052;-68
2022/04/15 01:51:26;;;;;;;8.13;7.32;;;;;;;;;;4938146;29;20052;-68
2022/04/15 01:53:55;;;;;;;10.27;6.38;;;;;;;;;;4938314;29;20075;-68
2022/04/15 01:56:23;;;;;;;9.20;6.80;;;;;;;;;;4937935;29;20407;-68
2022/04/15 01:58:51;;;;;;;7.85;5.50;;;;;;;;;;4937974;29;20062;-68
2022/04/15 02:01:20;;;;;;;10.18;6.20;;;;;;;;;;4926492;29;20048;-68
2022/04/15 02:03:49;;;;;;;8.82;6.18;;;;;;;;;;4920107;29;20508;-68
2022/04/15 02:06:18;;;;;;;7.45;6.65;;;;;;;;;;4920016;29;20063;-68
2022/04/15 02:08:48;;;;;;;9.00;6.78;;;;;;;;;;4932436;29;20048;-68
2022/04/15 02:11:17;;;;;;;7.82;6.13;;;;;;;;;;4919700;29;20119;-68
2022/04/15 02:13:47;;;;;;;8.60;6.90;;;;;;;;;;4936592;29;20064;-68
2022/04/15 02:16:16;;;;;;;7.80;6.85;;;;;;;;;;4938242;29;20048;-68
2022/04/15 02:18:46;;;;;;;8.77;6.90;;;;;;;;;;4930431;29;20055;-68
2022/04/15 02:21:15;;;;;;;8.02;6.97;;;;;;;;;;4920140;29;20134;-68
2022/04/15 02:23:44;;;;;;;8.82;5.72;;;;;;;;;;4918977;29;20138;-68
2022/04/15 02:26:13;;;;;;;8.55;7.70;;;;;;;;;;4919593;29;20538;-68
2022/04/15 02:28:41;;;;;;;12.93;8.05;;;;;;;;;;4919452;29;20071;-68
2022/04/15 02:31:10;;;;;;;7.90;6.95;;;;;;;;;;4926273;29;20411;-68
2022/04/15 02:33:39;;;;;;;7.60;6.20;;;;;;;;;;4936593;29;20054;-68
2022/04/15 02:36:08;;;;;;;10.25;6.97;;;;;;;;;;4937298;29;20511;-68
2022/04/15 02:38:38;;;;;;;7.47;6.20;;;;;;;;;;4935071;29;20056;-68
2022/04/15 02:41:08;;;;;;;7.82;6.55;;;;;;;;;;4919184;29;20138;-68
2022/04/15 02:43:44;;;;;;;7.43;6.20;;;;;;;;;;4930460;29;20056;-68
2022/04/15 02:46:13;;;;;;;8.77;5.45;;;;;;;;;;4918976;29;20123;-69
2022/04/15 02:48:42;;;;;;;10.23;6.47;;;;;;;;;;4919097;29;20085;-69
2022/04/15 02:51:14;;;;;;;9.45;5.93;;;;;;;;;;4918910;29;20056;-68
2022/04/15 02:53:44;;;;;;;7.90;5.60;;;;;;;;;;4932511;29;20063;-68
2022/04/15 02:56:13;;;;;;;5.65;5.05;;;;;;;;;;4918873;29;20056;-69
2022/04/15 02:58:43;;;;;;;8.98;5.85;;;;;;;;;;4931470;29;20411;-69
2022/04/15 03:01:12;;;;;;;8.88;5.82;;;;;;;;;;4931139;29;20051;-68
2022/04/15 03:03:43;;;;;;;6.68;5.95;;;;;;;;;;4918713;29;20135;-68
2022/04/15 03:06:13;;;;;;;9.93;6.18;;;;;;;;;;4918951;29;20052;-69
2022/04/15 03:08:41;;;;;;;11.23;6.82;;;;;;;;;;4918423;29;20060;-68
2022/04/15 03:11:11;;;;;;;12.13;6.88;;;;;;;;;;4918975;29;20182;-68
2022/04/15 03:13:40;;;;;;;8.75;6.82;;;;;;;;;;4919214;29;20084;-68
2022/04/15 03:16:09;;;;;;;7.97;6.88;;;;;;;;;;4919074;29;20063;-68
2022/04/15 03:18:38;;;;;;;9.93;6.68;;;;;;;;;;4920429;29;20044;-69
2022/04/15 03:21:08;;;;;;;10.88;6.40;;;;;;;;;;4937056;29;20048;-69
2022/04/15 03:23:39;;;;;;;9.00;6.15;;;;;;;;;;4934339;29;20055;-69
2022/04/15 03:26:08;;;;;;;9.85;6.78;;;;;;;;;;4926434;29;20052;-69
2022/04/15 03:28:37;;;;;;;9.40;7.28;;;;;;;;;;4936896;29;20400;-69
2022/04/15 03:31:09;;;;;;;11.95;7.68;;;;;;;;;;4936974;29;20048;-68
2022/04/15 03:33:39;;;;;;;9.30;8.23;;;;;;;;;;4933222;29;20064;-69
2022/04/15 03:36:09;;;;;;;9.48;8.30;;;;;;;;;;4935387;29;20500;-69
2022/04/15 03:38:39;;;;;;;12.10;9.25;;;;;;;;;;4936792;29;20056;-69
2022/04/15 03:41:08;;;;;;;12.30;9.10;;;;;;;;;;4919234;29;20131;-69
2022/04/15 03:43:37;;;;;;;11.20;7.75;;;;;;;;;;4918712;29;20044;-69
2022/04/15 03:46:06;;;;;;;10.45;7.70;;;;;;;;;;4921076;29;20056;-69
2022/04/15 03:48:36;;;;;;;10.60;7.85;;;;;;;;;;4922308;29;20060;-69
2022/04/15 03:51:08;;;;;;;9.77;8.02;;;;;;;;;;4934359;29;20055;-68
2022/04/15 03:53:38;;;;;;;10.43;7.93;;;;;;;;;;4922329;29;20059;-70
2022/04/15 03:56:07;;;;;;;11.93;6.60;;;;;;;;;;4928959;29;20056;-69
2022/04/15 03:58:36;;;;;;;10.48;6.65;;;;;;;;;;4939673;29;20058;-69
2022/04/15 04:01:05;;;;;;;8.50;6.85;;;;;;;;;;4928962;29;20138;-69
2022/04/15 04:03:34;;;;;;;7.68;6.47;;;;;;;;;;4940367;29;20048;-69
2022/04/15 04:06:02;;;;;;;11.73;7.78;;;;;;;;;;4940067;29;20495;-69
2022/04/15 04:08:31;;;;;;;9.85;6.60;;;;;;;;;;4927892;29;20139;-69
2022/04/15 04:11:01;;;;;;;9.25;7.43;;;;;;;;;;4940590;29;20048;-69
2022/04/15 04:13:30;;;;;;;8.45;7.20;;;;;;;;;;4940294;29;20055;-69
2022/04/15 04:15:59;;;;;;;9.40;6.30;;;;;;;;;;4940231;29;20067;-69
2022/04/15 04:18:28;;;;;;;14.43;7.55;;;;;;;;;;4939736;29;20058;-69
2022/04/15 04:20:57;;;;;;;9.25;6.53;;;;;;;;;;4940226;29;20052;-69
2022/04/15 04:23:25;;;;;;;7.00;6.00;;;;;;;;;;4939923;29;20059;-69
2022/04/15 04:25:54;;;;;;;7.93;6.72;;;;;;;;;;4940269;29;20058;-69
2022/04/15 04:28:22;;;;;;;7.72;6.32;;;;;;;;;;4939387;29;20044;-69
2022/04/15 04:30:53;;;;;;;10.50;6.93;;;;;;;;;;4939943;29;20101;-69
2022/04/15 04:33:22;;;;;;;8.80;6.05;;;;;;;;;;4939603;29;20572;-69
2022/04/15 04:35:52;;;;;;;21.67;9.05;;;;;;;;;;4939493;29;20059;-69
2022/04/15 04:38:21;;;;;;;8.63;6.82;;;;;;;;;;4939801;29;20048;-69
2022/04/15 04:40:50;;;;;;;9.73;7.10;;;;;;;;;;4939200;29;20059;-69
2022/04/15 04:43:19;;;;;;;16.08;6.60;;;;;;;;;;4922244;29;20052;-69
2022/04/15 04:45:48;;;;;;;8.70;7.47;;;;;;;;;;4921454;29;20060;-69
2022/04/15 04:48:17;;;;;;;15.20;6.22;;;;;;;;;;4921290;29;20067;-70
2022/04/15 04:50:47;;;;;;;14.32;8.77;;;;;;;;;;4934581;29;20131;-69
2022/04/15 04:53:17;;;;;;;9.63;6.57;;;;;;;;;;4921089;29;20077;-70
2022/04/15 04:55:47;;;;;;;10.75;6.82;;;;;;;;;;4920774;29;20059;-70
2022/04/15 04:58:17;;;;;;;9.52;8.23;;;;;;;;;;4920693;29;20052;-70
2022/04/15 05:00:45;;;;;;;13.73;8.50;;;;;;;;;;4933400;29;20411;-69
2022/04/15 05:03:15;;;;;;;13.13;8.88;;;;;;;;;;4939488;29;20518;-71
2022/04/15 05:05:43;;;;;;;12.60;9.02;;;;;;;;;;4935524;29;20061;-70
2022/04/15 05:08:13;;;;;;;11.27;8.57;;;;;;;;;;4934755;29;20048;-72
2022/04/15 05:10:42;;;;;;;10.20;7.85;;;;;;;;;;4927007;29;20048;-72
2022/04/15 05:13:11;;;;;;;11.82;8.85;;;;;;;;;;4922885;29;20056;-71
2022/04/15 05:15:41;;;;;;;15.85;9.45;;;;;;;;;;4922640;29;20065;-69
2022/04/15 05:18:11;;;;;;;12.55;8.32;;;;;;;;;;4929174;29;20047;-70
2022/04/15 05:20:40;;;;;;;11.85;7.60;;;;;;;;;;4929451;29;20058;-69
2022/04/15 05:23:10;;;;;;;17.05;9.30;;;;;;;;;;4923372;29;20146;-69
2022/04/15 05:25:40;;;;;;;10.18;7.45;;;;;;;;;;4920031;29;20508;-69
2022/04/15 05:28:09;;;;;;;9.38;7.57;;;;;;;;;;4920893;29;20088;-68
2022/04/15 05:30:38;;;;;;;10.02;8.90;;;;;;;;;;4924221;29;20058;-68
2022/04/15 05:33:07;;;;;;;14.98;8.90;;;;;;;;;;4921174;29;20057;-66
2022/04/15 05:35:37;;;;;;;9.95;8.25;;;;;;;;;;4924484;29;20440;-69
2022/04/15 05:38:08;;;;;;;11.27;7.18;;;;;;;;;;4933921;29;20059;-67
2022/04/15 05:40:38;;;;;;;8.82;7.40;;;;;;;;;;4921413;29;20056;-68
2022/04/15 05:43:07;;;;;;;10.18;8.23;;;;;;;;;;4930998;29;20484;-69
2022/04/15 05:45:36;;;;;;;11.23;8.68;;;;;;;;;;4936084;29;20059;-69
2022/04/15 05:48:06;;;;;;;15.40;9.57;;;;;;;;;;4936453;29;20075;-70
2022/04/15 05:50:35;;;;;;;11.60;9.25;;;;;;;;;;4936816;29;20091;-70
2022/04/15 05:53:03;;;;;;;15.38;11.75;;;;;;;;;;4925708;29;20052;-70
2022/04/15 05:55:35;;;;;;;16.35;11.35;;;;;;;;;;4931792;29;20462;-70
2022/04/15 05:58:04;;;;;;;13.10;10.20;;;;;;;;;;4937847;29;20410;-69
2022/04/15 06:00:33;;;;;;;14.82;9.60;;;;;;;;;;4937698;29;20500;-69
2022/04/15 06:03:02;;;;;;;16.85;10.95;;;;;;;;;;4937159;29;20067;-69
2022/04/15 06:05:32;;;;;;;11.98;9.82;;;;;;;;;;4936583;29;20043;-69
2022/04/15 06:08:00;;;;;;;14.20;10.88;;;;;;;;;;4937354;29;20055;-69
2022/04/15 06:10:30;;;;;;;14.32;10.75;;;;;;;;;;4935584;29;20684;-69
2022/04/15 06:13:02;;;;;;;18.67;10.48;;;;;;;;;;4935720;29;20107;-69
2022/04/15 06:15:32;;;;;;;16.87;11.53;;;;;;;;;;4926380;29;20424;-69
2022/04/15 06:18:01;;;;;;;18.60;11.00;;;;;;;;;;4926769;29;20058;-69
2022/04/15 06:20:31;;;;;;;19.48;11.40;;;;;;;;;;4936322;29;20070;-69
2022/04/15 06:23:00;;;;;;;23.45;11.52;;;;;;;;;;4937066;29;20526;-69
2022/04/15 06:25:30;;;;;;;19.10;10.45;;;;;;;;;;4937796;29;20499;-69
2022/04/15 06:28:00;;;;;;;17.83;10.20;;;;;;;;;;4937195;29;20048;-69
2022/04/15 06:30:30;;;;;;;15.43;11.18;;;;;;;;;;4937695;29;20075;-69
2022/04/15 06:32:59;;;;;;;15.65;10.18;;;;;;;;;;4937630;29;20106;-69
2022/04/15 06:35:29;;;;;;;19.55;11.27;;;;;;;;;;4919627;29;20048;-69
2022/04/15 06:37:58;;;;;;;21.17;11.15;;;;;;;;;;4919113;29;20052;-69
2022/04/15 06:40:28;;;;;;;17.13;12.02;;;;;;;;;;4918726;29;20111;-69
2022/04/15 06:42:58;;;;;;;18.83;11.13;;;;;;;;;;4925120;29;20039;-69
2022/04/15 06:45:28;;;;;;;26.10;11.98;;;;;;;;;;4919018;29;20052;-69
2022/04/15 06:47:57;;;;;;;24.77;11.88;;;;;;;;;;4925688;29;20111;-69
2022/04/15 06:50:26;;;;;;;26.40;11.25;;;;;;;;;;4937285;29;20131;-69
2022/04/15 06:53:01;;;;;;;20.65;11.20;;;;;;;;;;4937677;29;20044;-69
2022/04/15 06:55:32;;;;;;;20.05;11.38;;;;;;;;;;4936805;29;20115;-69
2022/04/15 06:57:59;;;;;;;20.83;12.38;;;;;;;;;;4937374;29;20064;-69
2022/04/15 07:00:28;;;;;;;22.75;10.32;;;;;;;;;;4922357;29;20056;-69
2022/04/15 07:02:56;;;;;;;19.30;9.98;;;;;;;;;;4919138;29;20424;-69
2022/04/15 07:05:25;;;;;;;31.30;12.10;;;;;;;;;;4921441;29;20101;-70
2022/04/15 07:07:54;;;;;;;16.90;10.18;;;;;;;;;;4921770;29;20063;-70
2022/04/15 07:10:24;;;;;;;23.60;10.65;;;;;;;;;;4919062;29;20056;-69
2022/04/15 07:12:54;;;;;;;22.10;10.00;;;;;;;;;;4919032;29;20092;-69
2022/04/15 07:15:25;;;;;;;25.95;10.80;;;;;;;;;;4918776;29;20051;-70
2022/04/15 07:17:53;;;;;;;27.23;10.48;;;;;;;;;;4918630;29;20412;-70
2022/04/15 07:20:23;;;;;;;15.98;9.65;;;;;;;;;;4920386;29;20059;-69
2022/04/15 07:22:56;;;;;;;25.42;10.52;;;;;;;;;;4922788;29;20102;-70
2022/04/15 07:25:25;;;;;;;31.38;9.18;;;;;;;;;;4923069;29;20108;-69
2022/04/15 07:27:55;;;;;;;21.98;9.13;;;;;;;;;;4922604;29;20059;-70
2022/04/15 07:30:25;;;;;;;20.70;9.38;;;;;;;;;;4928817;29;20483;-70
2022/04/15 07:32:55;;;;;;;15.73;9.25;;;;;;;;;;4941089;29;20535;-70
2022/04/15 07:35:24;;;;;;;13.20;9.32;;;;;;;;;;4940844;29;20519;-70
2022/04/15 07:37:53;;;;;;;13.90;9.38;;;;;;;;;;4927662;29;20187;-70
2022/04/15 07:40:27;;;;;;;13.55;8.93;;;;;;;;;;4922500;29;20048;-70
2022/04/15 07:42:57;;;;;;;13.90;9.00;;;;;;;;;;4922603;29;20060;-70
2022/04/15 07:45:25;;;;;;;22.40;10.35;;;;;;;;;;4921942;29;20064;-70
2022/04/15 07:47:54;;;;;;;21.92;11.02;;;;;;;;;;4922536;29;20055;-70
2022/04/15 07:50:25;;;;;;;18.17;11.75;;;;;;;;;;4937379;29;20083;-70
2022/04/15 07:52:58;;;;;;;16.83;11.13;;;;;;;;;;4940374;29;20123;-70
2022/04/15 07:55:27;;;;;;;29.08;12.68;;;;;;;;;;4940574;29;20107;-69
2022/04/15 07:57:56;;;;;;;17.85;10.43;;;;;;;;;;4940636;29;20056;-68
2022/04/15 08:00:25;;;;;;;22.70;11.02;;;;;;;;;;4923527;29;20445;-69
2022/04/15 08:02:54;;;;;;;18.67;12.27;;;;;;;;;;4921619;29;20492;-69
2022/04/15 08:05:23;;;;;;;19.08;11.50;;;;;;;;;;4921957;29;20058;-69
2022/04/15 08:07:51;;;;;;;17.50;10.65;;;;;;;;;;4921987;29;20060;-69
2022/04/15 08:10:20;;;;;;;15.15;10.70;;;;;;;;;;4921985;29;20052;-70
2022/04/15 08:12:50;;;;;;;18.70;11.73;;;;;;;;;;4921771;29;20484;-69
2022/04/15 08:15:19;;;;;;;15.90;10.35;;;;;;;;;;4921450;29;20051;-69
2022/04/15 08:17:48;;;;;;;19.63;10.20;;;;;;;;;;4922002;29;20055;-69
2022/04/15 08:20:17;;;;;;;20.95;10.07;;;;;;;;;;4921825;29;20044;-70
2022/04/15 08:22:46;;;;;;;25.08;11.13;;;;;;;;;;4933921;29;20081;-69
2022/04/15 08:25:15;;;;;;;15.98;10.30;;;;;;;;;;4921491;29;20419;-70
2022/04/15 08:27:44;;;;;;;23.88;10.57;;;;;;;;;;4921690;29;20060;-70
2022/04/15 08:30:15;;;;;;;12.90;9.25;;;;;;;;;;4921428;29;20048;-69
2022/04/15 08:32:53;;;;;;;16.83;10.52;;;;;;;;;;4921181;29;20056;-70
2022/04/15 08:35:22;;;;;;;12.50;9.40;;;;;;;;;;4921079;29;20047;-70
2022/04/15 08:37:52;;;;;;;13.88;9.10;;;;;;;;;;4921343;29;20067;-69
2022/04/15 08:40:23;;;;;;;11.60;8.00;;;;;;;;;;4921055;29;20052;-69
2022/04/15 08:42:52;;;;;;;15.32;10.13;;;;;;;;;;4921229;29;20060;-69
2022/04/15 08:45:22;;;;;;;15.43;8.32;;;;;;;;;;4921463;29;20071;-70
2022/04/15 08:47:53;;;;;;;12.63;8.27;;;;;;;;;;4921315;29;20183;-69
2022/04/15 08:50:22;;;;;;;19.50;10.38;;;;;;;;;;4936588;29;20063;-69
2022/04/15 08:52:56;;;;;;;15.85;7.88;;;;;;;;;;4922887;29;20048;-69
2022/04/15 08:55:28;;;;;;;20.08;9.90;;;;;;;;;;4921225;29;20067;-69
2022/04/15 08:58:01;;;;;;;12.13;8.90;;;;;;;;;;4932272;29;20051;-69
2022/04/15 09:00:30;;;;;;;17.73;9.50;;;;;;;;;;4927079;29;20051;-70
2022/04/15 09:02:59;;;;;;;16.88;8.43;;;;;;;;;;4939012;29;20056;-69
2022/04/15 09:05:32;;;;;;;13.38;5.78;;;;;;;;;;4938784;29;20451;-69
2022/04/15 09:08:10;;;;;;;16.63;6.07;;;;;;;;;;4931291;29;20484;-70
2022/04/15 09:10:42;;;;;;;18.20;7.63;;;;;;;;;;4920069;29;20405;-69
2022/04/15 09:13:22;;;;;;;16.95;7.75;;;;;;;;;;4921870;29;20108;-70
2022/04/15 09:15:51;;;;;;;18.58;9.70;;;;;;;;;;4920305;29;20131;-69
2022/04/15 09:18:36;;;;;;;15.80;7.85;;;;;;;;;;4920518;29;20060;-69
2022/04/15 09:21:21;;;;;;;15.00;6.97;;;;;;;;;;4920202;29;20503;-69
2022/04/15 09:23:51;;;;;;;14.73;7.00;;;;;;;;;;4920022;29;20056;-69
2022/04/15 09:26:21;;;;;;;12.70;6.18;;;;;;;;;;4919841;29;20044;-69
2022/04/15 09:28:53;;;;;;;11.05;5.72;;;;;;;;;;4920029;29;20059;-69
2022/04/15 09:31:23;;;;;;;10.20;5.57;;;;;;;;;;4931101;29;20052;-69
2022/04/15 09:33:57;;;;;;;9.82;5.60;;;;;;;;;;4938613;29;20071;-69
2022/04/15 09:36:31;;;;;;;7.00;5.22;;;;;;;;;;4920338;29;20063;-69
2022/04/15 09:39:28;;;;;;;7.05;5.95;;;;;;;;;;4928515;29;20131;-69
2022/04/15 09:41:58;;;;;;;11.82;6.18;;;;;;;;;;4924338;29;20511;-69
2022/04/15 09:44:31;;;;;;;12.77;7.18;;;;;;;;;;4924365;29;20403;-69
2022/04/15 09:47:05;;;;;;;14.20;6.63;;;;;;;;;;4946367;29;20404;-69
2022/04/15 09:49:35;;;;;;;9.15;6.72;;;;;;;;;;4924835;29;20414;-69
2022/04/15 09:52:06;;;;;;;9.02;5.55;;;;;;;;;;4938180;29;20058;-69
2022/04/15 09:54:35;;;;;;;10.00;5.78;;;;;;;;;;4937117;29;20119;-69
2022/04/15 09:57:05;;;;;;;10.90;5.97;;;;;;;;;;4919965;29;20052;-69
2022/04/15 09:59:35;;;;;;;8.55;4.97;;;;;;;;;;4931358;29;20507;-69
2022/04/15 10:02:07;;;;;;;7.40;4.65;;;;;;;;;;4923191;29;20036;-70
2022/04/15 10:04:38;;;;;;;8.18;4.78;;;;;;;;;;4921470;29;20045;-70
2022/04/15 10:07:08;;;;;;;8.30;4.20;;;;;;;;;;4920795;29;20052;-69
2022/04/15 10:09:38;;;;;;;9.18;5.15;;;;;;;;;;4933553;29;20059;-68
2022/04/15 10:12:07;;;;;;;10.00;5.10;;;;;;;;;;4922292;29;20052;-69
2022/04/15 10:14:38;;;;;;;14.20;4.85;;;;;;;;;;4935673;29;20051;-69
2022/04/15 10:17:07;;;;;;;7.30;5.82;;;;;;;;;;4937321;29;20062;-69
2022/04/15 10:19:37;;;;;;;7.40;4.15;;;;;;;;;;4937772;29;20063;-69
2022/04/15 10:22:07;;;;;;;9.18;5.00;;;;;;;;;;4936443;29;20118;-69
2022/04/15 10:24:37;;;;;;;10.75;4.60;;;;;;;;;;4937554;29;20058;-69
2022/04/15 10:27:07;;;;;;;6.85;4.85;;;;;;;;;;4937134;29;20056;-69
2022/04/15 10:29:36;;;;;;;10.43;6.30;;;;;;;;;;4925142;29;20052;-69
2022/04/15 10:32:13;;;;;;;7.10;5.13;;;;;;;;;;4937317;29;20044;-69
2022/04/15 10:34:48;;;;;;;5.95;4.90;;;;;;;;;;4923168;29;20389;-69
2022/04/15 10:37:17;;;;;;;11.32;5.28;;;;;;;;;;4918663;29;20455;-69
2022/04/15 10:39:48;;;;;;;8.68;5.75;;;;;;;;;;4919218;29;20064;-69
2022/04/15 10:42:19;;;;;;;6.80;5.82;;;;;;;;;;4919209;29;20056;-70
2022/04/15 10:44:48;;;;;;;7.38;5.10;;;;;;;;;;4919297;29;20127;-69
2022/04/15 10:47:17;;;;;;;8.93;5.60;;;;;;;;;;4919015;29;20052;-69
2022/04/15 10:49:57;;;;;;;7.18;5.13;;;;;;;;;;4918983;29;20064;-69
2022/04/15 10:52:30;;;;;;;6.70;5.18;;;;;;;;;;4919751;29;20055;-70
2022/04/15 10:55:05;;;;;;;6.97;5.28;;;;;;;;;;4918031;29;20044;-69
2022/04/15 10:57:48;;;;;;;6.85;5.07;;;;;;;;;;4931294;29;20047;-69
2022/04/15 11:03:26;;;;;;;7.40;5.25;;;;;;;;;;4918760;29;20079;-70
2022/04/15 11:05:57;;;;;;;11.38;5.32;;;;;;;;;;4924793;29;20100;-70
2022/04/15 11:08:51;;;;;;;6.22;3.92;;;;;;;;;;4918800;29;20060;-70
2022/04/15 11:11:36;;;;;;;6.00;4.18;;;;;;;;;;4918002;29;20082;-70
2022/04/15 11:14:13;;;;;;;6.20;4.13;;;;;;;;;;4931525;29;20118;-70
2022/04/15 11:16:50;;;;;;;4.10;3.65;;;;;;;;;;4936330;29;20075;-70
2022/04/15 11:19:26;;;;;;;9.02;2.80;;;;;;;;;;4919922;29;20044;-70
2022/04/15 11:21:54;;;;;;;11.32;3.67;;;;;;;;;;4918385;29;20404;-70
2022/04/15 11:24:28;;;;;;;4.95;3.30;;;;;;;;;;4918617;29;20158;-70
2022/04/15 11:27:03;;;;;;;4.30;3.40;;;;;;;;;;4924760;29;20060;-70
2022/04/15 11:29:34;;;;;;;6.88;4.00;;;;;;;;;;4936083;29;20055;-70
2022/04/15 11:32:06;;;;;;;5.57;3.13;;;;;;;;;;4918712;29;20124;-70
2022/04/15 11:34:35;;;;;;;8.75;3.25;;;;;;;;;;4918532;29;20048;-70
2022/04/15 11:37:05;;;;;;;4.70;3.78;;;;;;;;;;4918485;29;20056;-70
2022/04/15 11:39:36;;;;;;;6.90;3.75;;;;;;;;;;4927513;29;20060;-70
2022/04/15 11:42:13;;;;;;;4.43;3.60;;;;;;;;;;4936565;29;20434;-70
2022/04/15 11:44:43;;;;;;;7.95;4.35;;;;;;;;;;4937189;29;20126;-70
2022/04/15 11:47:24;;;;;;;3.90;3.15;;;;;;;;;;4936947;29;20043;-71
2022/04/15 11:49:53;;;;;;;5.57;3.65;;;;;;;;;;4936590;29;20074;-70
2022/04/15 11:52:24;;;;;;;5.63;3.78;;;;;;;;;;4936586;29;20052;-70
2022/04/15 11:54:53;;;;;;;6.05;3.67;;;;;;;;;;4930353;29;20056;-71
2022/04/15 11:57:22;;;;;;;6.75;3.63;;;;;;;;;;4918831;29;20191;-70
2022/04/15 11:59:52;;;;;;;6.00;4.10;;;;;;;;;;4918737;29;20419;-70
2022/04/15 12:02:24;;;;;;;7.45;4.97;;;;;;;;;;4932894;29;20056;-70
2022/04/15 12:04:56;;;;;;;6.90;4.22;;;;;;;;;;4936784;29;20048;-71
2022/04/15 12:07:25;;;;;;;5.47;4.00;;;;;;;;;;4935783;29;20044;-70
2022/04/15 12:09:54;;;;;;;7.32;4.30;;;;;;;;;;4940349;29;20407;-70
2022/04/15 12:12:24;;;;;;;8.27;4.32;;;;;;;;;;4940181;29;20586;-70
2022/04/15 12:14:53;;;;;;;5.35;4.85;;;;;;;;;;4940126;29;20066;-71
2022/04/15 12:17:24;;;;;;;8.50;5.05;;;;;;;;;;4940550;29;20055;-70
2022/04/15 12:19:52;;;;;;;5.82;3.97;;;;;;;;;;4922380;29;20056;-70
2022/04/15 12:22:23;;;;;;;6.28;4.28;;;;;;;;;;4937615;29;20503;-71
2022/04/15 12:24:52;;;;;;;24.30;7.13;;;;;;;;;;4940189;29;20451;-71
2022/04/15 12:27:32;;;;;;;9.45;7.78;;;;;;;;;;4920985;29;20048;-71
2022/04/15 12:30:02;;;;;;;8.10;6.55;;;;;;;;;;4921685;29;20063;-71
2022/04/15 12:32:34;;;;;;;9.43;5.88;;;;;;;;;;4921368;29;20070;-71
2022/04/15 12:35:05;;;;;;;;;;;;;;;;;;4936225;29;20052;-71
2022/04/15 12:37:50;;;;;;;8.85;8.00;;;;;;;;;;4925344;29;20426;-71
2022/04/15 12:40:22;;;;;;;9.95;6.25;;;;;;;;;;4921644;29;20048;-71
2022/04/15 12:42:53;;;;;;;8.23;6.50;;;;;;;;;;4926354;29;20039;-70
2022/04/15 12:45:22;;;;;;;7.00;6.10;;;;;;;;;;4939846;29;20134;-70
2022/04/15 12:48:02;;;;;;;7.07;6.38;;;;;;;;;;4939473;29;20071;-70
2022/04/15 12:50:33;;;;;;;6.85;6.15;;;;;;;;;;4921832;29;20413;-71
2022/04/15 12:53:16;;;;;;;7.03;6.32;;;;;;;;;;4920927;29;20044;-71
2022/04/15 12:55:45;;;;;;;7.50;6.32;;;;;;;;;;4921284;29;20044;-71
2022/04/15 12:58:28;;;;;;;5.97;5.38;;;;;;;;;;4921030;29;20452;-71
2022/04/15 13:00:58;;;;;;;5.95;5.35;;;;;;;;;;4921246;29;20095;-71
2022/04/15 13:03:30;;;;;;;7.68;5.63;;;;;;;;;;4920637;29;20467;-69
2022/04/15 13:05:58;;;;;;;5.30;4.80;;;;;;;;;;4920924;29;20431;-69
2022/04/15 13:08:27;;;;;;;8.25;5.85;;;;;;;;;;4920388;29;20095;-69
2022/04/15 13:10:55;;;;;;;7.57;5.80;;;;;;;;;;4920783;29;20060;-69
2022/04/15 13:13:37;;;;;;;11.80;6.25;;;;;;;;;;4920690;29;20048;-69
2022/04/15 13:16:09;;;;;;;8.52;5.07;;;;;;;;;;4920823;29;20090;-68
2022/04/15 13:18:38;;;;;;;5.70;5.15;;;;;;;;;;4919732;29;20060;-69
2022/04/15 13:21:08;;;;;;;6.55;5.20;;;;;;;;;;4920689;29;20059;-69
2022/04/15 13:23:37;;;;;;;10.70;6.18;;;;;;;;;;4921016;29;20111;-69
2022/04/15 13:26:06;;;;;;;5.53;4.38;;;;;;;;;;4930172;29;20084;-69
2022/04/15 13:28:36;;;;;;;6.40;4.90;;;;;;;;;;4939068;29;20056;-69
2022/04/15 13:31:05;;;;;;;4.70;4.30;;;;;;;;;;4938422;29;20040;-70
2022/04/15 13:33:34;;;;;;;5.22;4.53;;;;;;;;;;4939001;29;20059;-69
2022/04/15 13:36:03;;;;;;;4.10;3.58;;;;;;;;;;4938494;29;20067;-69
2022/04/15 13:38:33;;;;;;;5.85;4.55;;;;;;;;;;4938503;29;20063;-69
2022/04/15 13:41:01;;;;;;;8.20;3.65;;;;;;;;;;4920436;29;20059;-69
2022/04/15 13:43:32;;;;;;;7.03;3.70;;;;;;;;;;4932251;29;20380;-69
2022/04/15 13:46:01;;;;;;;9.57;4.03;;;;;;;;;;4938889;29;20599;-69
2022/04/15 13:48:31;;;;;;;6.80;4.13;;;;;;;;;;4919595;29;20415;-69
2022/04/15 13:51:00;;;;;;;5.80;4.38;;;;;;;;;;4932262;29;20152;-69
2022/04/15 13:59:05;;;;;;;6.20;2.80;;;;;;;;;;4938288;29;20059;-68
2022/04/15 14:01:36;;;;;;;2.78;2.22;;;;;;;;;;4938286;29;20035;-69
2022/04/15 14:04:10;;;;;;;5.40;3.10;;;;;;;;;;4919813;29;20408;-69
2022/04/15 14:06:42;;;;;;;7.20;3.05;;;;;;;;;;4919772;29;20083;-69
2022/04/15 14:09:11;;;;;;;6.63;3.35;;;;;;;;;;4919313;29;20111;-69
2022/04/15 14:11:43;;;;;;;4.50;2.45;;;;;;;;;;4919556;29;20044;-69
2022/04/15 14:14:17;;;;;;;5.85;2.45;;;;;;;;;;4919857;29;20060;-69
2022/04/15 14:16:47;;;;;;;7.40;3.72;;;;;;;;;;4919825;29;20072;-68
2022/04/15 14:19:17;;;;;;;2.97;2.35;;;;;;;;;;4919130;29;20055;-69
2022/04/15 14:21:45;;;;;;;2.75;2.47;;;;;;;;;;4919301;29;20108;-69
2022/04/15 14:24:14;;;;;;;5.13;2.92;;;;;;;;;;4919065;29;20048;-69
2022/04/15 14:26:44;;;;;;;13.10;3.97;;;;;;;;;;4919845;29;20051;-69
2022/04/15 14:29:14;;;;;;;5.05;2.88;;;;;;;;;;4936011;29;20078;-69
2022/04/15 14:31:43;;;;;;;4.90;3.20;;;;;;;;;;4937689;29;20067;-69
2022/04/15 14:34:13;;;;;;;7.75;2.90;;;;;;;;;;4937927;29;20052;-69
2022/04/15 14:36:44;;;;;;;3.67;2.75;;;;;;;;;;4937190;29;20057;-70
2022/04/15 14:39:13;;;;;;;3.60;3.22;;;;;;;;;;4937721;29;20051;-69
2022/04/15 14:41:46;;;;;;;5.60;3.05;;;;;;;;;;4936975;29;20430;-69
2022/04/15 14:44:15;;;;;;;4.95;3.17;;;;;;;;;;4925006;29;20044;-69
2022/04/15 14:46:47;;;;;;;5.97;3.40;;;;;;;;;;4918753;29;20139;-69
2022/04/15 14:49:16;;;;;;;6.13;2.92;;;;;;;;;;4919350;29;20052;-69
2022/04/15 14:51:46;;;;;;;5.68;2.83;;;;;;;;;;4918972;29;20195;-69
2022/04/15 14:54:14;;;;;;;4.57;2.50;;;;;;;;;;4928913;29;20500;-69
2022/04/15 14:56:43;;;;;;;4.95;3.17;;;;;;;;;;4918770;29;20397;-69
2022/04/15 14:59:12;;;;;;;3.90;2.92;;;;;;;;;;4919131;29;20527;-69
2022/04/15 15:01:40;;;;;;;6.25;3.20;;;;;;;;;;4918767;29;20052;-69